sensor_id;sensor_type;location;lat;lon;timestamp;temperature;humidity
20303;DHT22;10310;50.906;4.622;2022-09-27T00:00:12;9.60;99.90
20303;DHT22;10310;50.906;4.622;2022-09-27T00:02:39;9.60;99.90
20303;DHT22;10310;50.906;4.622;2022-09-27T00:05:07;9.60;99.90
20303;DHT22;10310;50.906;4.622;2022-09-27T00:07:34;9.60;99.90
20303;DHT22;10310;50.906;4.622;2022-09-27T00:10:03;9.60;99.90
20303;DHT22;10310;50.906;4.622;2022-09-27T00:12:30;9.50;99.90
20303;DHT22;10310;50.906;4.622;2022-09-27T00:14:59;9.60;99.90
20303;DHT22;10310;50.906;4.622;2022-09-27T00:17:26;9.60;99.90
20303;DHT22;10310;50.906;4.622;2022-09-27T00:19:54;9.60;99.90
20303;DHT22;10310;50.906;4.622;2022-09-27T00:22:22;9.70;99.90
20303;DHT22;10310;50.906;4.622;2022-09-27T00:24:51;9.60;99.90
20303;DHT22;10310;50.906;4.622;2022-09-27T00:27:18;9.80;99.90
20303;DHT22;10310;50.906;4.622;2022-09-27T00:29:46;9.70;99.90
20303;DHT22;10310;50.906;4.622;2022-09-27T00:32:14;9.80;99.90
20303;DHT22;10310;50.906;4.622;2022-09-27T00:34:42;9.80;99.90
20303;DHT22;10310;50.906;4.622;2022-09-27T00:37:10;9.70;99.90
20303;DHT22;10310;50.906;4.622;2022-09-27T00:39:38;9.70;99.90
20303;DHT22;10310;50.906;4.622;2022-09-27T00:42:07;9.80;99.90
20303;DHT22;10310;50.906;4.622;2022-09-27T00:44:58;9.80;99.90
20303;DHT22;10310;50.906;4.622;2022-09-27T00:47:30;9.80;99.90
20303;DHT22;10310;50.906;4.622;2022-09-27T00:50:03;10.10;99.90
20303;DHT22;10310;50.906;4.622;2022-09-27T00:52:37;9.70;99.90
20303;DHT22;10310;50.906;4.622;2022-09-27T00:55:10;9.70;99.90
20303;DHT22;10310;50.906;4.622;2022-09-27T00:57:39;9.70;99.90
20303;DHT22;10310;50.906;4.622;2022-09-27T01:00:11;9.60;99.90
20303;DHT22;10310;50.906;4.622;2022-09-27T01:02:44;9.60;99.90
20303;DHT22;10310;50.906;4.622;2022-09-27T01:05:13;9.60;99.90
20303;DHT22;10310;50.906;4.622;2022-09-27T01:07:40;9.60;99.90
20303;DHT22;10310;50.906;4.622;2022-09-27T01:10:08;9.60;99.90
20303;DHT22;10310;50.906;4.622;2022-09-27T01:12:44;9.60;99.90
20303;DHT22;10310;50.906;4.622;2022-09-27T01:15:22;9.60;99.90
20303;DHT22;10310;50.906;4.622;2022-09-27T01:18:10;9.60;99.90
20303;DHT22;10310;50.906;4.622;2022-09-27T01:23:53;9.60;99.90
20303;DHT22;10310;50.906;4.622;2022-09-27T01:26:33;9.50;99.90
20303;DHT22;10310;50.906;4.622;2022-09-27T01:29:10;9.50;99.90
20303;DHT22;10310;50.906;4.622;2022-09-27T01:31:48;9.40;99.90
20303;DHT22;10310;50.906;4.622;2022-09-27T01:34:22;9.40;99.90
20303;DHT22;10310;50.906;4.622;2022-09-27T01:36:55;9.40;99.90
20303;DHT22;10310;50.906;4.622;2022-09-27T01:39:32;9.40;99.90
20303;DHT22;10310;50.906;4.622;2022-09-27T01:42:09;9.40;99.90
20303;DHT22;10310;50.906;4.622;2022-09-27T01:44:39;9.40;99.90
20303;DHT22;10310;50.906;4.622;2022-09-27T01:47:13;9.40;99.90
20303;DHT22;10310;50.906;4.622;2022-09-27T01:49:47;9.40;99.90
20303;DHT22;10310;50.906;4.622;2022-09-27T01:52:21;9.90;99.90
20303;DHT22;10310;50.906;4.622;2022-09-27T01:54:53;9.20;99.90
20303;DHT22;10310;50.906;4.622;2022-09-27T01:57:25;9.10;99.90
20303;DHT22;10310;50.906;4.622;2022-09-27T01:59:57;8.50;99.90
20303;DHT22;10310;50.906;4.622;2022-09-27T02:02:28;9.10;99.90
20303;DHT22;10310;50.906;4.622;2022-09-27T02:04:59;9.10;99.90
20303;DHT22;10310;50.906;4.622;2022-09-27T02:07:32;9.10;99.90
20303;DHT22;10310;50.906;4.622;2022-09-27T02:10:04;9.10;99.90
20303;DHT22;10310;50.906;4.622;2022-09-27T02:12:39;9.10;99.90
20303;DHT22;10310;50.906;4.622;2022-09-27T02:15:12;9.20;99.90
20303;DHT22;10310;50.906;4.622;2022-09-27T02:17:44;9.20;99.90
20303;DHT22;10310;50.906;4.622;2022-09-27T02:20:17;9.30;99.90
20303;DHT22;10310;50.906;4.622;2022-09-27T02:22:49;9.30;99.90
20303;DHT22;10310;50.906;4.622;2022-09-27T02:25:22;9.30;99.90
20303;DHT22;10310;50.906;4.622;2022-09-27T02:27:54;9.30;99.90
20303;DHT22;10310;50.906;4.622;2022-09-27T02:30:23;9.30;99.90
20303;DHT22;10310;50.906;4.622;2022-09-27T02:32:52;9.30;99.90
20303;DHT22;10310;50.906;4.622;2022-09-27T02:35:23;9.30;99.90
20303;DHT22;10310;50.906;4.622;2022-09-27T02:37:51;9.30;99.90
20303;DHT22;10310;50.906;4.622;2022-09-27T02:40:18;9.20;99.90
20303;DHT22;10310;50.906;4.622;2022-09-27T02:42:46;9.20;99.90
20303;DHT22;10310;50.906;4.622;2022-09-27T02:45:15;9.20;99.90
20303;DHT22;10310;50.906;4.622;2022-09-27T02:48:00;9.20;99.90
20303;DHT22;10310;50.906;4.622;2022-09-27T02:51:00;9.20;99.90
20303;DHT22;10310;50.906;4.622;2022-09-27T02:53:37;9.10;99.90
20303;DHT22;10310;50.906;4.622;2022-09-27T02:56:12;9.10;99.90
20303;DHT22;10310;50.906;4.622;2022-09-27T02:58:52;9.10;99.90
20303;DHT22;10310;50.906;4.622;2022-09-27T03:01:28;9.30;99.90
20303;DHT22;10310;50.906;4.622;2022-09-27T03:04:04;9.40;99.90
20303;DHT22;10310;50.906;4.622;2022-09-27T03:06:32;9.00;99.90
20303;DHT22;10310;50.906;4.622;2022-09-27T03:09:00;8.60;99.90
20303;DHT22;10310;50.906;4.622;2022-09-27T03:11:27;9.40;99.90
20303;DHT22;10310;50.906;4.622;2022-09-27T03:13:55;9.10;99.90
20303;DHT22;10310;50.906;4.622;2022-09-27T03:16:22;9.10;99.90
20303;DHT22;10310;50.906;4.622;2022-09-27T03:18:50;9.10;99.90
20303;DHT22;10310;50.906;4.622;2022-09-27T03:21:18;9.10;99.90
20303;DHT22;10310;50.906;4.622;2022-09-27T03:23:45;9.30;99.90
20303;DHT22;10310;50.906;4.622;2022-09-27T03:26:12;9.10;99.90
20303;DHT22;10310;50.906;4.622;2022-09-27T03:28:41;9.00;99.90
20303;DHT22;10310;50.906;4.622;2022-09-27T03:31:08;9.00;99.90
20303;DHT22;10310;50.906;4.622;2022-09-27T03:33:35;9.00;99.90
20303;DHT22;10310;50.906;4.622;2022-09-27T03:36:02;9.50;99.90
20303;DHT22;10310;50.906;4.622;2022-09-27T03:38:31;9.00;99.90
20303;DHT22;10310;50.906;4.622;2022-09-27T03:40:58;9.00;99.90
20303;DHT22;10310;50.906;4.622;2022-09-27T03:43:25;9.00;99.90
20303;DHT22;10310;50.906;4.622;2022-09-27T03:45:52;9.10;99.90
20303;DHT22;10310;50.906;4.622;2022-09-27T03:48:19;9.40;99.90
20303;DHT22;10310;50.906;4.622;2022-09-27T03:50:50;9.10;99.90
20303;DHT22;10310;50.906;4.622;2022-09-27T03:53:17;9.10;99.90
20303;DHT22;10310;50.906;4.622;2022-09-27T03:55:46;8.90;99.90
20303;DHT22;10310;50.906;4.622;2022-09-27T03:58:18;9.10;99.90
20303;DHT22;10310;50.906;4.622;2022-09-27T04:00:45;9.00;99.90
20303;DHT22;10310;50.906;4.622;2022-09-27T04:03:13;9.00;99.90
20303;DHT22;10310;50.906;4.622;2022-09-27T04:05:40;9.00;99.90
20303;DHT22;10310;50.906;4.622;2022-09-27T04:08:07;9.00;99.90
20303;DHT22;10310;50.906;4.622;2022-09-27T04:10:36;8.90;99.90
20303;DHT22;10310;50.906;4.622;2022-09-27T04:13:04;8.90;99.90
20303;DHT22;10310;50.906;4.622;2022-09-27T04:15:31;8.90;99.90
20303;DHT22;10310;50.906;4.622;2022-09-27T04:17:58;8.80;99.90
20303;DHT22;10310;50.906;4.622;2022-09-27T04:20:25;8.80;99.90
20303;DHT22;10310;50.906;4.622;2022-09-27T04:22:52;8.70;99.90
20303;DHT22;10310;50.906;4.622;2022-09-27T04:25:19;8.70;99.90
20303;DHT22;10310;50.906;4.622;2022-09-27T04:27:47;8.60;99.90
20303;DHT22;10310;50.906;4.622;2022-09-27T04:30:18;8.60;99.90
20303;DHT22;10310;50.906;4.622;2022-09-27T04:32:45;8.50;99.90
20303;DHT22;10310;50.906;4.622;2022-09-27T04:35:12;8.50;99.90
20303;DHT22;10310;50.906;4.622;2022-09-27T04:37:57;8.50;99.90
20303;DHT22;10310;50.906;4.622;2022-09-27T04:40:24;8.50;99.90
20303;DHT22;10310;50.906;4.622;2022-09-27T04:42:52;8.50;99.90
20303;DHT22;10310;50.906;4.622;2022-09-27T04:45:20;8.60;99.90
20303;DHT22;10310;50.906;4.622;2022-09-27T04:47:48;8.60;99.90
20303;DHT22;10310;50.906;4.622;2022-09-27T04:50:17;8.60;99.90
20303;DHT22;10310;50.906;4.622;2022-09-27T04:52:49;8.50;99.90
20303;DHT22;10310;50.906;4.622;2022-09-27T04:55:20;8.50;99.90
20303;DHT22;10310;50.906;4.622;2022-09-27T04:57:47;8.50;99.90
20303;DHT22;10310;50.906;4.622;2022-09-27T05:00:15;8.60;99.90
20303;DHT22;10310;50.906;4.622;2022-09-27T05:02:44;8.70;99.90
20303;DHT22;10310;50.906;4.622;2022-09-27T05:05:13;9.10;99.90
20303;DHT22;10310;50.906;4.622;2022-09-27T05:07:40;8.80;99.90
20303;DHT22;10310;50.906;4.622;2022-09-27T05:10:09;8.90;99.90
20303;DHT22;10310;50.906;4.622;2022-09-27T05:12:36;8.90;99.90
20303;DHT22;10310;50.906;4.622;2022-09-27T05:15:04;8.90;99.90
20303;DHT22;10310;50.906;4.622;2022-09-27T05:17:31;8.90;99.90
20303;DHT22;10310;50.906;4.622;2022-09-27T05:20:00;8.90;99.90
20303;DHT22;10310;50.906;4.622;2022-09-27T05:22:27;8.90;99.90
20303;DHT22;10310;50.906;4.622;2022-09-27T05:24:57;8.80;99.90
20303;DHT22;10310;50.906;4.622;2022-09-27T05:27:24;8.80;99.90
20303;DHT22;10310;50.906;4.622;2022-09-27T05:29:51;8.80;99.90
20303;DHT22;10310;50.906;4.622;2022-09-27T05:32:18;8.90;99.90
20303;DHT22;10310;50.906;4.622;2022-09-27T05:34:45;8.90;99.90
20303;DHT22;10310;50.906;4.622;2022-09-27T05:37:14;9.20;99.90
20303;DHT22;10310;50.906;4.622;2022-09-27T05:39:41;9.00;99.90
20303;DHT22;10310;50.906;4.622;2022-09-27T05:42:08;9.00;99.90
20303;DHT22;10310;50.906;4.622;2022-09-27T05:44:36;9.00;99.90
20303;DHT22;10310;50.906;4.622;2022-09-27T05:47:04;9.40;99.90
20303;DHT22;10310;50.906;4.622;2022-09-27T05:49:31;9.10;99.90
20303;DHT22;10310;50.906;4.622;2022-09-27T05:51:58;9.10;99.90
20303;DHT22;10310;50.906;4.622;2022-09-27T05:54:27;9.10;99.90
20303;DHT22;10310;50.906;4.622;2022-09-27T05:56:54;9.10;99.90
20303;DHT22;10310;50.906;4.622;2022-09-27T05:59:23;9.40;99.90
20303;DHT22;10310;50.906;4.622;2022-09-27T06:01:50;9.40;99.90
20303;DHT22;10310;50.906;4.622;2022-09-27T06:04:17;9.20;99.90
20303;DHT22;10310;50.906;4.622;2022-09-27T06:06:44;9.20;99.90
20303;DHT22;10310;50.906;4.622;2022-09-27T06:09:12;9.20;99.90
20303;DHT22;10310;50.906;4.622;2022-09-27T06:11:41;9.10;99.90
20303;DHT22;10310;50.906;4.622;2022-09-27T06:14:09;9.80;99.90
20303;DHT22;10310;50.906;4.622;2022-09-27T06:16:36;10.00;99.90
20303;DHT22;10310;50.906;4.622;2022-09-27T06:19:03;9.20;99.90
20303;DHT22;10310;50.906;4.622;2022-09-27T06:21:30;9.20;99.90
20303;DHT22;10310;50.906;4.622;2022-09-27T06:23:58;9.40;99.90
20303;DHT22;10310;50.906;4.622;2022-09-27T06:26:25;9.80;99.90
20303;DHT22;10310;50.906;4.622;2022-09-27T06:28:54;9.10;99.90
20303;DHT22;10310;50.906;4.622;2022-09-27T06:31:21;9.40;99.90
20303;DHT22;10310;50.906;4.622;2022-09-27T06:33:48;9.60;99.90
20303;DHT22;10310;50.906;4.622;2022-09-27T06:36:15;9.60;99.90
20303;DHT22;10310;50.906;4.622;2022-09-27T06:38:42;9.40;99.90
20303;DHT22;10310;50.906;4.622;2022-09-27T06:41:10;9.40;99.90
20303;DHT22;10310;50.906;4.622;2022-09-27T06:43:37;9.40;99.90
20303;DHT22;10310;50.906;4.622;2022-09-27T06:46:06;9.40;99.90
20303;DHT22;10310;50.906;4.622;2022-09-27T06:48:33;9.40;99.90
20303;DHT22;10310;50.906;4.622;2022-09-27T06:51:03;9.40;99.90
20303;DHT22;10310;50.906;4.622;2022-09-27T06:53:30;9.40;99.90
20303;DHT22;10310;50.906;4.622;2022-09-27T06:55:58;9.50;99.90
20303;DHT22;10310;50.906;4.622;2022-09-27T06:58:26;9.40;99.90
20303;DHT22;10310;50.906;4.622;2022-09-27T07:01:11;9.50;99.90
20303;DHT22;10310;50.906;4.622;2022-09-27T07:03:38;9.50;99.90
20303;DHT22;10310;50.906;4.622;2022-09-27T07:06:13;9.50;99.90
20303;DHT22;10310;50.906;4.622;2022-09-27T07:08:41;9.50;99.90
20303;DHT22;10310;50.906;4.622;2022-09-27T07:11:08;9.60;99.90
20303;DHT22;10310;50.906;4.622;2022-09-27T07:13:35;9.70;99.90
20303;DHT22;10310;50.906;4.622;2022-09-27T07:16:07;9.80;99.90
20303;DHT22;10310;50.906;4.622;2022-09-27T07:18:37;9.90;99.90
20303;DHT22;10310;50.906;4.622;2022-09-27T07:21:04;9.90;99.90
20303;DHT22;10310;50.906;4.622;2022-09-27T07:23:33;9.90;99.90
20303;DHT22;10310;50.906;4.622;2022-09-27T07:26:01;9.90;99.90
20303;DHT22;10310;50.906;4.622;2022-09-27T07:28:32;10.00;99.90
20303;DHT22;10310;50.906;4.622;2022-09-27T07:31:02;10.30;99.90
20303;DHT22;10310;50.906;4.622;2022-09-27T07:33:29;9.90;99.90
20303;DHT22;10310;50.906;4.622;2022-09-27T07:35:58;9.80;99.90
20303;DHT22;10310;50.906;4.622;2022-09-27T07:38:25;9.80;99.90
20303;DHT22;10310;50.906;4.622;2022-09-27T07:40:52;9.80;99.90
20303;DHT22;10310;50.906;4.622;2022-09-27T07:43:19;10.30;99.90
20303;DHT22;10310;50.906;4.622;2022-09-27T07:45:46;9.90;99.90
20303;DHT22;10310;50.906;4.622;2022-09-27T07:48:14;10.10;99.90
20303;DHT22;10310;50.906;4.622;2022-09-27T07:50:41;10.20;99.90
20303;DHT22;10310;50.906;4.622;2022-09-27T07:53:10;10.60;99.90
20303;DHT22;10310;50.906;4.622;2022-09-27T07:55:38;11.00;99.90
20303;DHT22;10310;50.906;4.622;2022-09-27T07:58:07;11.30;99.90
20303;DHT22;10310;50.906;4.622;2022-09-27T08:00:34;11.50;99.90
20303;DHT22;10310;50.906;4.622;2022-09-27T08:03:05;12.40;99.90
20303;DHT22;10310;50.906;4.622;2022-09-27T08:05:33;11.90;99.90
20303;DHT22;10310;50.906;4.622;2022-09-27T08:08:07;11.30;99.90
20303;DHT22;10310;50.906;4.622;2022-09-27T08:10:35;11.10;99.90
20303;DHT22;10310;50.906;4.622;2022-09-27T08:13:04;11.00;99.90
20303;DHT22;10310;50.906;4.622;2022-09-27T08:15:32;10.80;99.90
20303;DHT22;10310;50.906;4.622;2022-09-27T08:18:00;10.70;99.90
20303;DHT22;10310;50.906;4.622;2022-09-27T08:20:27;11.20;99.90
20303;DHT22;10310;50.906;4.622;2022-09-27T08:22:54;10.50;99.90
20303;DHT22;10310;50.906;4.622;2022-09-27T08:25:21;10.50;99.90
20303;DHT22;10310;50.906;4.622;2022-09-27T08:27:55;10.60;99.90
20303;DHT22;10310;50.906;4.622;2022-09-27T08:30:22;10.70;99.90
20303;DHT22;10310;50.906;4.622;2022-09-27T08:32:54;10.60;99.90
20303;DHT22;10310;50.906;4.622;2022-09-27T08:35:21;10.60;99.90
20303;DHT22;10310;50.906;4.622;2022-09-27T08:37:52;10.80;99.90
20303;DHT22;10310;50.906;4.622;2022-09-27T08:40:20;10.80;99.90
20303;DHT22;10310;50.906;4.622;2022-09-27T08:42:59;10.80;99.90
20303;DHT22;10310;50.906;4.622;2022-09-27T08:45:31;10.80;99.90
20303;DHT22;10310;50.906;4.622;2022-09-27T08:48:00;11.30;99.90
20303;DHT22;10310;50.906;4.622;2022-09-27T08:50:30;10.80;99.90
20303;DHT22;10310;50.906;4.622;2022-09-27T08:53:01;10.70;99.90
20303;DHT22;10310;50.906;4.622;2022-09-27T08:55:32;10.80;99.90
20303;DHT22;10310;50.906;4.622;2022-09-27T08:58:08;10.70;99.90
20303;DHT22;10310;50.906;4.622;2022-09-27T09:00:38;11.00;99.90
20303;DHT22;10310;50.906;4.622;2022-09-27T09:03:07;10.40;99.90
20303;DHT22;10310;50.906;4.622;2022-09-27T09:06:06;10.30;99.90
20303;DHT22;10310;50.906;4.622;2022-09-27T09:08:43;10.30;99.90
20303;DHT22;10310;50.906;4.622;2022-09-27T09:11:24;10.30;99.90
20303;DHT22;10310;50.906;4.622;2022-09-27T09:14:53;10.40;99.90
20303;DHT22;10310;50.906;4.622;2022-09-27T09:17:32;10.30;99.90
20303;DHT22;10310;50.906;4.622;2022-09-27T09:20:15;10.30;99.90
20303;DHT22;10310;50.906;4.622;2022-09-27T09:23:01;10.50;99.90
20303;DHT22;10310;50.906;4.622;2022-09-27T09:25:38;10.10;99.90
20303;DHT22;10310;50.906;4.622;2022-09-27T09:28:19;10.00;99.90
20303;DHT22;10310;50.906;4.622;2022-09-27T09:30:59;10.10;99.90
20303;DHT22;10310;50.906;4.622;2022-09-27T09:33:30;9.90;99.90
20303;DHT22;10310;50.906;4.622;2022-09-27T09:36:00;9.80;99.90
20303;DHT22;10310;50.906;4.622;2022-09-27T09:38:35;9.70;99.90
20303;DHT22;10310;50.906;4.622;2022-09-27T09:41:09;10.10;99.90
20303;DHT22;10310;50.906;4.622;2022-09-27T09:43:40;9.70;99.90
20303;DHT22;10310;50.906;4.622;2022-09-27T09:46:12;9.80;99.90
20303;DHT22;10310;50.906;4.622;2022-09-27T09:48:43;9.90;99.90
20303;DHT22;10310;50.906;4.622;2022-09-27T09:51:16;9.90;99.90
20303;DHT22;10310;50.906;4.622;2022-09-27T09:53:50;10.20;99.90
20303;DHT22;10310;50.906;4.622;2022-09-27T09:56:22;10.50;99.90
20303;DHT22;10310;50.906;4.622;2022-09-27T09:58:53;10.80;99.90
20303;DHT22;10310;50.906;4.622;2022-09-27T10:01:25;10.80;99.90
20303;DHT22;10310;50.906;4.622;2022-09-27T10:03:53;11.00;99.90
20303;DHT22;10310;50.906;4.622;2022-09-27T10:06:22;11.50;99.90
20303;DHT22;10310;50.906;4.622;2022-09-27T10:08:50;11.50;99.90
20303;DHT22;10310;50.906;4.622;2022-09-27T10:11:22;11.60;99.90
20303;DHT22;10310;50.906;4.622;2022-09-27T10:13:49;11.70;99.90
20303;DHT22;10310;50.906;4.622;2022-09-27T10:16:18;11.90;99.90
20303;DHT22;10310;50.906;4.622;2022-09-27T10:18:49;11.90;99.90
20303;DHT22;10310;50.906;4.622;2022-09-27T10:21:20;11.90;99.90
20303;DHT22;10310;50.906;4.622;2022-09-27T10:24:05;11.80;99.90
20303;DHT22;10310;50.906;4.622;2022-09-27T10:26:34;12.00;99.90
20303;DHT22;10310;50.906;4.622;2022-09-27T10:29:14;11.90;99.90
20303;DHT22;10310;50.906;4.622;2022-09-27T10:31:43;12.00;99.90
20303;DHT22;10310;50.906;4.622;2022-09-27T10:34:20;12.10;99.90
20303;DHT22;10310;50.906;4.622;2022-09-27T10:37:02;12.20;99.90
20303;DHT22;10310;50.906;4.622;2022-09-27T10:39:30;12.40;99.90
20303;DHT22;10310;50.906;4.622;2022-09-27T10:41:57;12.40;99.90
20303;DHT22;10310;50.906;4.622;2022-09-27T10:44:26;12.60;99.90
20303;DHT22;10310;50.906;4.622;2022-09-27T10:46:55;12.60;99.90
20303;DHT22;10310;50.906;4.622;2022-09-27T10:49:28;12.80;99.90
20303;DHT22;10310;50.906;4.622;2022-09-27T10:51:57;12.70;99.90
20303;DHT22;10310;50.906;4.622;2022-09-27T10:54:26;12.60;99.90
20303;DHT22;10310;50.906;4.622;2022-09-27T10:56:57;12.60;99.90
20303;DHT22;10310;50.906;4.622;2022-09-27T10:59:24;12.80;99.90
20303;DHT22;10310;50.906;4.622;2022-09-27T11:01:55;12.70;99.90
20303;DHT22;10310;50.906;4.622;2022-09-27T11:04:28;12.80;99.90
20303;DHT22;10310;50.906;4.622;2022-09-27T11:07:07;12.80;99.90
20303;DHT22;10310;50.906;4.622;2022-09-27T11:09:49;12.70;99.90
20303;DHT22;10310;50.906;4.622;2022-09-27T11:12:17;12.60;99.90
20303;DHT22;10310;50.906;4.622;2022-09-27T11:14:51;12.70;99.90
20303;DHT22;10310;50.906;4.622;2022-09-27T11:17:25;12.90;99.90
20303;DHT22;10310;50.906;4.622;2022-09-27T11:20:14;13.40;99.90
20303;DHT22;10310;50.906;4.622;2022-09-27T11:23:02;13.60;99.90
20303;DHT22;10310;50.906;4.622;2022-09-27T11:25:36;13.80;99.90
20303;DHT22;10310;50.906;4.622;2022-09-27T11:28:14;14.00;99.90
20303;DHT22;10310;50.906;4.622;2022-09-27T11:30:49;14.20;99.90
20303;DHT22;10310;50.906;4.622;2022-09-27T11:33:40;14.30;99.90
20303;DHT22;10310;50.906;4.622;2022-09-27T11:36:14;12.50;99.90
20303;DHT22;10310;50.906;4.622;2022-09-27T11:38:55;10.70;99.90
20303;DHT22;10310;50.906;4.622;2022-09-27T11:41:38;10.40;99.90
20303;DHT22;10310;50.906;4.622;2022-09-27T11:44:29;10.20;99.90
20303;DHT22;10310;50.906;4.622;2022-09-27T11:47:02;9.90;99.90
20303;DHT22;10310;50.906;4.622;2022-09-27T11:50:01;10.00;99.90
20303;DHT22;10310;50.906;4.622;2022-09-27T11:52:43;10.30;99.90
20303;DHT22;10310;50.906;4.622;2022-09-27T11:55:20;11.00;99.90
20303;DHT22;10310;50.906;4.622;2022-09-27T11:57:55;11.10;99.90
20303;DHT22;10310;50.906;4.622;2022-09-27T12:00:39;11.40;99.90
20303;DHT22;10310;50.906;4.622;2022-09-27T12:06:21;12.00;99.90
20303;DHT22;10310;50.906;4.622;2022-09-27T12:09:00;12.20;99.90
20303;DHT22;10310;50.906;4.622;2022-09-27T12:11:32;12.40;99.90
20303;DHT22;10310;50.906;4.622;2022-09-27T12:14:04;12.80;99.90
20303;DHT22;10310;50.906;4.622;2022-09-27T12:16:33;13.30;99.90
20303;DHT22;10310;50.906;4.622;2022-09-27T12:19:03;13.70;99.90
20303;DHT22;10310;50.906;4.622;2022-09-27T12:21:35;13.70;99.90
20303;DHT22;10310;50.906;4.622;2022-09-27T12:24:04;13.80;99.90
20303;DHT22;10310;50.906;4.622;2022-09-27T12:26:36;13.80;99.90
20303;DHT22;10310;50.906;4.622;2022-09-27T12:29:11;13.90;99.90
20303;DHT22;10310;50.906;4.622;2022-09-27T12:31:43;14.00;99.90
20303;DHT22;10310;50.906;4.622;2022-09-27T12:34:15;14.00;99.90
20303;DHT22;10310;50.906;4.622;2022-09-27T12:36:48;13.90;99.90
20303;DHT22;10310;50.906;4.622;2022-09-27T12:39:21;14.00;99.90
20303;DHT22;10310;50.906;4.622;2022-09-27T12:41:53;14.00;99.90
20303;DHT22;10310;50.906;4.622;2022-09-27T12:44:27;13.80;99.90
20303;DHT22;10310;50.906;4.622;2022-09-27T12:47:01;13.80;99.90
20303;DHT22;10310;50.906;4.622;2022-09-27T12:49:37;14.10;99.90
20303;DHT22;10310;50.906;4.622;2022-09-27T12:52:10;14.40;99.90
20303;DHT22;10310;50.906;4.622;2022-09-27T12:57:54;13.90;99.90
20303;DHT22;10310;50.906;4.622;2022-09-27T13:00:31;13.80;99.90
20303;DHT22;10310;50.906;4.622;2022-09-27T13:11:58;14.40;99.90
20303;DHT22;10310;50.906;4.622;2022-09-27T13:14:30;14.60;99.90
20303;DHT22;10310;50.906;4.622;2022-09-27T13:16:59;14.60;99.90
20303;DHT22;10310;50.906;4.622;2022-09-27T13:19:40;14.30;99.90
20303;DHT22;10310;50.906;4.622;2022-09-27T13:22:17;13.70;99.90
20303;DHT22;10310;50.906;4.622;2022-09-27T13:25:01;13.10;99.90
20303;DHT22;10310;50.906;4.622;2022-09-27T13:27:38;12.20;99.90
20303;DHT22;10310;50.906;4.622;2022-09-27T13:33:46;11.50;99.90
20303;DHT22;10310;50.906;4.622;2022-09-27T13:36:27;11.60;99.90
20303;DHT22;10310;50.906;4.622;2022-09-27T13:39:18;11.90;99.90
20303;DHT22;10310;50.906;4.622;2022-09-27T13:42:05;12.30;99.90
20303;DHT22;10310;50.906;4.622;2022-09-27T13:44:42;12.60;99.90
20303;DHT22;10310;50.906;4.622;2022-09-27T13:47:23;12.90;99.90
20303;DHT22;10310;50.906;4.622;2022-09-27T13:49:56;13.30;99.90
20303;DHT22;10310;50.906;4.622;2022-09-27T13:52:28;13.50;99.90
20303;DHT22;10310;50.906;4.622;2022-09-27T13:54:59;13.60;99.90
20303;DHT22;10310;50.906;4.622;2022-09-27T13:57:48;13.70;99.90
20303;DHT22;10310;50.906;4.622;2022-09-27T14:00:20;13.70;99.90
20303;DHT22;10310;50.906;4.622;2022-09-27T14:02:58;13.60;99.90
20303;DHT22;10310;50.906;4.622;2022-09-27T14:05:29;13.70;99.90
20303;DHT22;10310;50.906;4.622;2022-09-27T14:07:58;13.60;99.90
20303;DHT22;10310;50.906;4.622;2022-09-27T14:10:28;13.70;99.90
20303;DHT22;10310;50.906;4.622;2022-09-27T14:12:59;13.90;99.90
20303;DHT22;10310;50.906;4.622;2022-09-27T14:15:29;14.10;99.90
20303;DHT22;10310;50.906;4.622;2022-09-27T14:17:57;14.20;99.90
20303;DHT22;10310;50.906;4.622;2022-09-27T14:20:36;14.20;99.90
20303;DHT22;10310;50.906;4.622;2022-09-27T14:23:05;14.30;99.90
20303;DHT22;10310;50.906;4.622;2022-09-27T14:25:32;14.60;99.90
20303;DHT22;10310;50.906;4.622;2022-09-27T14:27:59;14.60;99.90
20303;DHT22;10310;50.906;4.622;2022-09-27T14:30:29;14.50;99.90
20303;DHT22;10310;50.906;4.622;2022-09-27T14:32:56;14.40;99.90
20303;DHT22;10310;50.906;4.622;2022-09-27T14:35:26;14.30;99.90
20303;DHT22;10310;50.906;4.622;2022-09-27T14:38:13;14.40;99.90
20303;DHT22;10310;50.906;4.622;2022-09-27T14:40:42;14.50;99.90
20303;DHT22;10310;50.906;4.622;2022-09-27T14:43:14;14.60;99.90
20303;DHT22;10310;50.906;4.622;2022-09-27T14:45:45;14.60;99.90
20303;DHT22;10310;50.906;4.622;2022-09-27T14:48:20;14.50;99.90
20303;DHT22;10310;50.906;4.622;2022-09-27T14:50:53;14.40;99.90
20303;DHT22;10310;50.906;4.622;2022-09-27T14:53:26;14.30;99.90
20303;DHT22;10310;50.906;4.622;2022-09-27T14:55:53;14.20;99.90
20303;DHT22;10310;50.906;4.622;2022-09-27T14:58:21;14.00;99.90
20303;DHT22;10310;50.906;4.622;2022-09-27T15:00:52;13.70;99.90
20303;DHT22;10310;50.906;4.622;2022-09-27T15:03:22;13.50;99.90
20303;DHT22;10310;50.906;4.622;2022-09-27T15:05:51;13.30;99.90
20303;DHT22;10310;50.906;4.622;2022-09-27T15:08:20;13.20;99.90
20303;DHT22;10310;50.906;4.622;2022-09-27T15:10:49;13.10;99.90
20303;DHT22;10310;50.906;4.622;2022-09-27T15:13:17;13.00;99.90
20303;DHT22;10310;50.906;4.622;2022-09-27T15:15:45;12.80;99.90
20303;DHT22;10310;50.906;4.622;2022-09-27T15:18:39;12.10;99.90
20303;DHT22;10310;50.906;4.622;2022-09-27T15:21:08;11.20;99.90
20303;DHT22;10310;50.906;4.622;2022-09-27T15:23:37;10.80;99.90
20303;DHT22;10310;50.906;4.622;2022-09-27T15:26:09;10.60;99.90
20303;DHT22;10310;50.906;4.622;2022-09-27T15:28:42;10.50;99.90
20303;DHT22;10310;50.906;4.622;2022-09-27T15:31:09;10.50;99.90
20303;DHT22;10310;50.906;4.622;2022-09-27T15:33:38;10.60;99.90
20303;DHT22;10310;50.906;4.622;2022-09-27T15:36:07;10.70;99.90
20303;DHT22;10310;50.906;4.622;2022-09-27T15:38:36;10.80;99.90
20303;DHT22;10310;50.906;4.622;2022-09-27T15:41:10;10.90;99.90
20303;DHT22;10310;50.906;4.622;2022-09-27T15:43:41;11.10;99.90
20303;DHT22;10310;50.906;4.622;2022-09-27T15:46:37;11.40;99.90
20303;DHT22;10310;50.906;4.622;2022-09-27T15:49:25;12.70;99.90
20303;DHT22;10310;50.906;4.622;2022-09-27T15:51:56;14.90;99.90
20303;DHT22;10310;50.906;4.622;2022-09-27T15:54:24;14.90;99.90
20303;DHT22;10310;50.906;4.622;2022-09-27T15:56:55;14.30;99.90
20303;DHT22;10310;50.906;4.622;2022-09-27T15:59:26;14.10;99.90
20303;DHT22;10310;50.906;4.622;2022-09-27T16:01:55;13.80;99.90
20303;DHT22;10310;50.906;4.622;2022-09-27T16:04:24;13.70;99.90
20303;DHT22;10310;50.906;4.622;2022-09-27T16:06:52;13.30;99.90
20303;DHT22;10310;50.906;4.622;2022-09-27T16:09:20;14.50;99.90
20303;DHT22;10310;50.906;4.622;2022-09-27T16:11:48;15.30;99.90
20303;DHT22;10310;50.906;4.622;2022-09-27T16:14:15;15.40;99.90
20303;DHT22;10310;50.906;4.622;2022-09-27T16:16:45;15.00;99.90
20303;DHT22;10310;50.906;4.622;2022-09-27T16:19:13;14.80;99.90
20303;DHT22;10310;50.906;4.622;2022-09-27T16:21:41;15.20;99.90
20303;DHT22;10310;50.906;4.622;2022-09-27T16:24:09;14.90;99.90
20303;DHT22;10310;50.906;4.622;2022-09-27T16:26:36;14.50;99.90